Time;durP1;ratioP1;P1;durP2;ratioP2;P2;SDS_P1;SDS_P2;PMS_P1;PMS_P2;Temp;Humidity;BMP_temperature;BMP_pressure;BME280_temperature;BME280_humidity;BME280_pressure;Samples;Min_cycle;Max_cycle;Signal;HPM_P1;HPM_P2
2024/03/27 00:01:54;;;;;;;13.57;6.25;;;;;;;;;;6082860;23;20499;-81
2024/03/27 00:04:23;;;;;;;12.82;6.45;;;;;;;;;;6083757;23;20002;-82
2024/03/27 00:06:49;;;;;;;;;;;;;;;;;;6058443;23;20011;-80
2024/03/27 00:09:15;;;;;;;12.98;6.70;;;;;;;;;;6058218;23;19911;-82
2024/03/27 00:11:41;;;;;;;14.82;6.40;;;;;;;;;;6057144;23;20037;-81
2024/03/27 00:14:11;;;;;;;13.40;7.10;;;;;;;;;;6083245;23;20006;-81
2024/03/27 00:16:37;;;;;;;13.30;6.50;;;;;;;;;;6081931;23;20010;-81
2024/03/27 00:19:03;;;;;;;13.27;6.25;;;;;;;;;;6087502;23;20006;-82
2024/03/27 00:21:28;;;;;;;11.18;5.95;;;;;;;;;;6087872;23;20479;-81
2024/03/27 00:23:56;;;;;;;12.68;6.40;;;;;;;;;;6111245;23;20014;-81
2024/03/27 00:26:22;;;;;;;13.95;6.35;;;;;;;;;;6090159;23;20015;-80
2024/03/27 00:28:54;;;;;;;10.15;6.13;;;;;;;;;;6113900;23;20021;-80
2024/03/27 00:31:22;;;;;;;11.23;6.00;;;;;;;;;;6113578;23;20042;-81
2024/03/27 00:33:48;;;;;;;12.52;5.97;;;;;;;;;;6091611;23;20007;-81
2024/03/27 00:36:14;;;;;;;12.07;6.25;;;;;;;;;;6091813;23;20017;-81
2024/03/27 00:38:40;;;;;;;10.40;5.90;;;;;;;;;;6087491;23;20080;-82
2024/03/27 00:41:09;;;;;;;9.52;5.20;;;;;;;;;;6091010;23;20010;-82
2024/03/27 00:43:35;;;;;;;9.80;5.60;;;;;;;;;;6117743;23;20058;-81
2024/03/27 00:46:07;;;;;;;10.50;5.75;;;;;;;;;;6093430;23;20010;-82
2024/03/27 00:48:33;;;;;;;10.07;5.38;;;;;;;;;;6119240;23;20195;-81
2024/03/27 00:50:59;;;;;;;14.50;5.75;;;;;;;;;;6095701;23;20087;-80
2024/03/27 00:53:25;;;;;;;12.38;6.55;;;;;;;;;;6118626;23;20030;-82
2024/03/27 00:55:58;;;;;;;11.35;6.03;;;;;;;;;;6110542;23;20010;-81
2024/03/27 00:58:23;;;;;;;11.65;5.90;;;;;;;;;;6110146;23;20010;-80
2024/03/27 01:00:49;;;;;;;11.88;5.90;;;;;;;;;;6083914;23;20402;-80
2024/03/27 01:03:15;;;;;;;12.32;5.55;;;;;;;;;;6083853;23;20002;-81
2024/03/27 01:05:41;;;;;;;9.52;5.50;;;;;;;;;;6083686;23;20060;-81
2024/03/27 01:08:07;;;;;;;13.23;5.70;;;;;;;;;;6107422;23;20422;-80
2024/03/27 01:10:37;;;;;;;10.63;5.15;;;;;;;;;;6109479;23;20074;-81
2024/03/27 01:13:02;;;;;;;10.43;5.50;;;;;;;;;;6110544;23;20102;-81
2024/03/27 01:15:29;;;;;;;10.10;5.07;;;;;;;;;;6083582;23;20002;-80
2024/03/27 01:17:55;;;;;;;9.98;5.35;;;;;;;;;;6058302;23;20101;-81
2024/03/27 01:20:22;;;;;;;11.52;5.40;;;;;;;;;;6084031;23;20014;-81
2024/03/27 01:22:48;;;;;;;8.32;5.00;;;;;;;;;;6082951;23;20468;-80
2024/03/27 01:25:14;;;;;;;9.95;5.50;;;;;;;;;;6086579;23;20017;-80
2024/03/27 01:27:40;;;;;;;12.18;6.35;;;;;;;;;;6081341;23;20409;-82
2024/03/27 01:30:07;;;;;;;11.30;5.80;;;;;;;;;;6086237;23;20010;-80
2024/03/27 01:32:33;;;;;;;9.48;4.68;;;;;;;;;;6087827;23;19998;-82
2024/03/27 01:34:58;;;;;;;9.75;4.95;;;;;;;;;;6090763;23;20098;-81
2024/03/27 01:37:24;;;;;;;11.52;5.40;;;;;;;;;;6092611;23;20337;-82
2024/03/27 01:39:51;;;;;;;10.25;5.20;;;;;;;;;;6091402;23;20010;-82
2024/03/27 01:42:18;;;;;;;7.90;4.45;;;;;;;;;;6116875;23;20010;-81
2024/03/27 01:44:44;;;;;;;7.82;4.80;;;;;;;;;;6094497;23;20013;-82
2024/03/27 01:47:10;;;;;;;10.38;4.78;;;;;;;;;;6046839;23;19998;-82
2024/03/27 01:49:36;;;;;;;9.77;4.57;;;;;;;;;;6094488;23;20021;-82
2024/03/27 01:52:04;;;;;;;9.68;5.43;;;;;;;;;;6094670;23;20014;-82
2024/03/27 01:54:30;;;;;;;9.23;4.80;;;;;;;;;;6094997;23;20010;-82
2024/03/27 01:56:57;;;;;;;9.35;4.68;;;;;;;;;;6095734;23;20018;-81
2024/03/27 01:59:23;;;;;;;8.48;4.80;;;;;;;;;;6094314;23;20003;-80
2024/03/27 02:01:49;;;;;;;10.40;4.32;;;;;;;;;;6094990;23;20029;-81
2024/03/27 02:04:17;;;;;;;10.38;4.80;;;;;;;;;;6094750;23;20037;-82
2024/03/27 02:06:43;;;;;;;7.70;4.45;;;;;;;;;;6095460;23;20074;-82
2024/03/27 02:09:13;;;;;;;11.20;4.65;;;;;;;;;;6095792;23;19998;-81
2024/03/27 02:11:40;;;;;;;10.07;4.57;;;;;;;;;;6095546;23;20089;-82
2024/03/27 02:14:07;;;;;;;11.50;5.07;;;;;;;;;;6095354;23;20021;-82
2024/03/27 02:16:33;;;;;;;9.32;4.47;;;;;;;;;;6094539;23;20006;-80
2024/03/27 02:18:58;;;;;;;10.50;4.20;;;;;;;;;;6085300;23;20007;-81
2024/03/27 02:21:24;;;;;;;9.88;4.80;;;;;;;;;;6105776;23;20125;-81
2024/03/27 02:23:50;;;;;;;10.55;4.65;;;;;;;;;;6082581;23;20010;-80
2024/03/27 02:26:17;;;;;;;9.18;4.90;;;;;;;;;;6081989;23;20038;-81
2024/03/27 02:28:43;;;;;;;9.45;3.90;;;;;;;;;;6081559;23;20010;-80
2024/03/27 02:31:09;;;;;;;7.63;3.97;;;;;;;;;;6081031;23;20010;-80
2024/03/27 02:33:35;;;;;;;9.45;4.47;;;;;;;;;;6081974;23;20013;-80
2024/03/27 02:36:01;;;;;;;12.40;5.03;;;;;;;;;;6081585;23;20084;-80
2024/03/27 02:38:27;;;;;;;8.88;4.95;;;;;;;;;;6057275;23;20010;-81
2024/03/27 02:40:53;;;;;;;8.48;4.30;;;;;;;;;;6080451;23;20020;-80
2024/03/27 02:43:19;;;;;;;11.30;4.22;;;;;;;;;;6082370;23;20352;-81
2024/03/27 02:45:45;;;;;;;9.68;4.78;;;;;;;;;;6082027;23;20050;-81
2024/03/27 02:48:11;;;;;;;8.88;4.93;;;;;;;;;;6082026;23;20479;-80
2024/03/27 02:50:36;;;;;;;8.13;4.15;;;;;;;;;;6082970;23;20474;-81
2024/03/27 02:53:02;;;;;;;7.55;4.25;;;;;;;;;;6083623;23;20033;-79
2024/03/27 02:55:28;;;;;;;18.88;4.82;;;;;;;;;;6083627;23;20010;-81
2024/03/27 02:57:54;;;;;;;9.73;4.43;;;;;;;;;;6080131;23;20575;-80
2024/03/27 03:00:19;;;;;;;10.40;4.50;;;;;;;;;;6106082;23;20013;-80
2024/03/27 03:02:45;;;;;;;9.68;4.80;;;;;;;;;;6055847;23;20034;-81
2024/03/27 03:05:11;;;;;;;8.77;4.50;;;;;;;;;;6084224;23;20033;-81
2024/03/27 03:07:36;;;;;;;7.50;4.20;;;;;;;;;;6086084;23;20034;-82
2024/03/27 03:10:04;;;;;;;9.65;4.72;;;;;;;;;;6086812;23;20021;-81
2024/03/27 03:12:29;;;;;;;9.27;4.47;;;;;;;;;;6085021;23;20058;-80
2024/03/27 03:14:55;;;;;;;8.73;4.22;;;;;;;;;;6106994;23;20009;-80
2024/03/27 03:17:21;;;;;;;10.88;4.47;;;;;;;;;;6085331;23;20038;-79
2024/03/27 03:19:47;;;;;;;10.30;4.65;;;;;;;;;;6083797;23;19995;-82
2024/03/27 03:22:13;;;;;;;7.40;4.32;;;;;;;;;;6107401;23;20006;-81
2024/03/27 03:24:38;;;;;;;9.75;4.40;;;;;;;;;;6085015;23;20007;-79
2024/03/27 03:27:04;;;;;;;13.07;4.97;;;;;;;;;;6080629;23;20010;-81
2024/03/27 03:29:30;;;;;;;10.68;4.75;;;;;;;;;;6082399;23;20006;-80
2024/03/27 03:31:57;;;;;;;8.32;4.50;;;;;;;;;;6082957;23;20034;-81
2024/03/27 03:34:24;;;;;;;10.40;4.38;;;;;;;;;;6083488;23;20041;-82
2024/03/27 03:36:50;;;;;;;9.02;4.68;;;;;;;;;;6085039;23;20468;-82
2024/03/27 03:39:16;;;;;;;8.73;4.07;;;;;;;;;;6087065;23;20009;-82
2024/03/27 03:41:42;;;;;;;10.93;4.82;;;;;;;;;;6086494;23;20010;-82
2024/03/27 03:44:08;;;;;;;12.48;4.30;;;;;;;;;;6111154;23;20344;-82
2024/03/27 03:46:34;;;;;;;8.30;3.90;;;;;;;;;;6111604;23;20077;-80
2024/03/27 03:48:59;;;;;;;10.30;4.90;;;;;;;;;;6088533;23;20033;-81
2024/03/27 03:51:25;;;;;;;8.75;4.88;;;;;;;;;;6112973;23;20038;-82
2024/03/27 03:53:52;;;;;;;8.05;4.03;;;;;;;;;;6089866;23;20038;-81
2024/03/27 03:56:17;;;;;;;7.63;4.20;;;;;;;;;;6112916;23;20002;-82
2024/03/27 03:58:43;;;;;;;10.35;4.28;;;;;;;;;;6089840;23;20071;-82
2024/03/27 04:01:09;;;;;;;12.02;4.40;;;;;;;;;;6136158;23;20015;-82
2024/03/27 04:03:36;;;;;;;9.57;4.63;;;;;;;;;;6091886;23;20456;-82
2024/03/27 04:06:05;;;;;;;13.45;4.93;;;;;;;;;;6093193;23;20074;-82
2024/03/27 04:08:31;;;;;;;15.10;4.80;;;;;;;;;;6091384;23;20010;-82
2024/03/27 04:11:00;;;;;;;11.55;4.50;;;;;;;;;;6087586;23;20011;-80
2024/03/27 04:13:27;;;;;;;9.57;4.00;;;;;;;;;;6110731;23;20029;-80
2024/03/27 04:15:54;;;;;;;8.55;4.15;;;;;;;;;;6084878;23;20062;-81
2024/03/27 04:18:20;;;;;;;9.43;4.28;;;;;;;;;;6082285;23;20022;-81
2024/03/27 04:20:46;;;;;;;12.68;4.35;;;;;;;;;;6105686;23;20014;-81
2024/03/27 04:23:15;;;;;;;9.60;4.75;;;;;;;;;;6107995;23;20003;-81
2024/03/27 04:25:47;;;;;;;8.75;4.50;;;;;;;;;;6109719;23;20026;-80
2024/03/27 04:28:14;;;;;;;8.68;4.78;;;;;;;;;;6085320;23;20010;-80
2024/03/27 04:30:42;;;;;;;11.43;4.22;;;;;;;;;;6084360;23;20014;-81
2024/03/27 04:33:08;;;;;;;7.63;3.83;;;;;;;;;;6109114;23;20002;-81
2024/03/27 04:35:33;;;;;;;8.48;4.20;;;;;;;;;;6085649;23;20010;-80
2024/03/27 04:37:59;;;;;;;9.18;4.70;;;;;;;;;;6085346;23;20448;-80
2024/03/27 04:40:25;;;;;;;11.05;4.57;;;;;;;;;;6109754;23;20042;-81
2024/03/27 04:42:51;;;;;;;16.20;5.80;;;;;;;;;;6086329;23;20037;-81
2024/03/27 04:45:17;;;;;;;10.45;4.38;;;;;;;;;;6086283;23;20010;-79
2024/03/27 04:47:42;;;;;;;11.50;4.57;;;;;;;;;;6108758;23;20006;-80
2024/03/27 04:50:08;;;;;;;10.75;4.10;;;;;;;;;;6108309;23;20093;-82
2024/03/27 04:52:35;;;;;;;9.02;4.00;;;;;;;;;;6059206;23;20021;-79
2024/03/27 04:55:05;;;;;;;8.43;4.72;;;;;;;;;;6085992;23;20026;-80
2024/03/27 04:57:31;;;;;;;12.18;4.63;;;;;;;;;;6080145;23;20444;-79
2024/03/27 04:59:57;;;;;;;9.13;4.63;;;;;;;;;;6081089;23;20016;-81
2024/03/27 05:02:22;;;;;;;14.25;4.20;;;;;;;;;;6082605;23;20014;-81
2024/03/27 05:04:49;;;;;;;8.18;3.90;;;;;;;;;;6106979;23;20006;-81
2024/03/27 05:07:16;;;;;;;11.82;3.83;;;;;;;;;;6062540;23;20347;-82
2024/03/27 05:09:42;;;;;;;9.70;4.28;;;;;;;;;;6062795;23;20093;-82
2024/03/27 05:12:08;;;;;;;10.30;3.97;;;;;;;;;;6110599;23;20030;-81
2024/03/27 05:14:34;;;;;;;9.15;3.60;;;;;;;;;;6112072;23;20002;-82
2024/03/27 05:17:01;;;;;;;10.88;3.92;;;;;;;;;;6113588;23;20006;-82
2024/03/27 05:19:27;;;;;;;7.47;4.10;;;;;;;;;;6060769;23;20009;-81
2024/03/27 05:21:53;;;;;;;11.65;5.63;;;;;;;;;;6107260;23;20085;-80
2024/03/27 05:24:19;;;;;;;11.63;4.40;;;;;;;;;;6109814;23;20017;-82
2024/03/27 05:26:49;;;;;;;13.50;5.45;;;;;;;;;;6083576;23;20077;-81
2024/03/27 05:29:14;;;;;;;14.93;5.85;;;;;;;;;;6077443;23;20329;-82
2024/03/27 05:31:54;;;;;;;10.38;3.65;;;;;;;;;;6077888;23;20014;-82
2024/03/27 05:34:20;;;;;;;7.38;3.03;;;;;;;;;;6078166;23;20013;-82
2024/03/27 05:36:45;;;;;;;12.13;3.45;;;;;;;;;;6076170;23;20335;-80
2024/03/27 05:39:11;;;;;;;9.95;3.58;;;;;;;;;;6076578;23;20332;-81
2024/03/27 05:41:39;;;;;;;10.65;3.65;;;;;;;;;;6077194;23;20013;-81
2024/03/27 05:44:06;;;;;;;11.80;3.88;;;;;;;;;;6113726;23;20021;-80
2024/03/27 05:46:32;;;;;;;10.20;3.83;;;;;;;;;;6078564;23;20011;-82
2024/03/27 05:48:58;;;;;;;7.93;3.58;;;;;;;;;;6055980;23;20010;-81
2024/03/27 05:51:24;;;;;;;10.18;3.55;;;;;;;;;;6082071;23;20069;-81
2024/03/27 05:53:51;;;;;;;11.40;3.53;;;;;;;;;;6079326;23;20006;-82
2024/03/27 05:56:16;;;;;;;9.68;3.42;;;;;;;;;;6078903;23;20006;-81
2024/03/27 05:58:42;;;;;;;13.35;3.40;;;;;;;;;;6056007;23;20095;-81
2024/03/27 06:01:07;;;;;;;12.98;3.45;;;;;;;;;;6080288;23;20348;-82
2024/03/27 06:03:33;;;;;;;10.05;3.33;;;;;;;;;;6104024;23;20010;-81
2024/03/27 06:06:00;;;;;;;7.40;3.40;;;;;;;;;;6102314;23;20018;-82
2024/03/27 06:08:26;;;;;;;8.43;3.53;;;;;;;;;;6078818;23;20014;-80
2024/03/27 06:10:51;;;;;;;12.85;3.58;;;;;;;;;;6080133;23;20408;-82
2024/03/27 06:13:18;;;;;;;7.78;3.90;;;;;;;;;;6080231;23;20413;-80
2024/03/27 06:15:44;;;;;;;15.02;4.60;;;;;;;;;;6077900;23;20011;-82
2024/03/27 06:18:10;;;;;;;8.07;3.72;;;;;;;;;;6103852;23;20017;-83
2024/03/27 06:20:37;;;;;;;10.50;4.03;;;;;;;;;;6080172;23;20040;-83
2024/03/27 06:23:03;;;;;;;11.38;4.18;;;;;;;;;;6078403;23;20360;-82
2024/03/27 06:25:28;;;;;;;9.73;3.83;;;;;;;;;;6102191;23;20017;-83
2024/03/27 06:27:54;;;;;;;11.00;4.57;;;;;;;;;;6101462;23;20018;-80
2024/03/27 06:30:20;;;;;;;13.27;4.28;;;;;;;;;;6080060;23;20038;-82
2024/03/27 06:32:48;;;;;;;10.02;3.83;;;;;;;;;;6105647;23;19998;-83
2024/03/27 06:35:13;;;;;;;9.35;3.67;;;;;;;;;;6103997;23;19999;-82
2024/03/27 06:37:39;;;;;;;8.82;4.45;;;;;;;;;;6087226;23;20007;-82
2024/03/27 06:40:09;;;;;;;12.52;4.97;;;;;;;;;;6084420;23;20456;-83
2024/03/27 06:42:35;;;;;;;9.82;3.40;;;;;;;;;;6079418;23;20053;-81
2024/03/27 06:45:05;;;;;;;7.30;3.33;;;;;;;;;;6082548;23;20034;-82
2024/03/27 06:47:32;;;;;;;7.22;3.30;;;;;;;;;;6058779;23;20348;-82
2024/03/27 06:49:59;;;;;;;7.90;3.13;;;;;;;;;;6105133;23;20014;-82
2024/03/27 06:52:26;;;;;;;7.28;3.13;;;;;;;;;;6077170;23;20011;-82
2024/03/27 06:54:52;;;;;;;7.70;2.85;;;;;;;;;;6076315;23;20013;-80
2024/03/27 06:57:18;;;;;;;10.73;3.45;;;;;;;;;;6078059;23;20061;-81
2024/03/27 06:59:44;;;;;;;12.00;3.50;;;;;;;;;;6081649;23;20014;-82
2024/03/27 07:02:10;;;;;;;8.95;3.15;;;;;;;;;;6081979;23;20432;-82
2024/03/27 07:04:36;;;;;;;8.75;3.05;;;;;;;;;;6104449;23;20083;-82
2024/03/27 07:07:03;;;;;;;8.70;2.70;;;;;;;;;;6079005;23;20037;-82
2024/03/27 07:09:32;;;;;;;6.15;2.22;;;;;;;;;;6102656;23;20075;-81
2024/03/27 07:11:58;;;;;;;;;;;;;;;;;;6101928;23;20491;-82
2024/03/27 07:14:23;;;;;;;7.38;2.33;;;;;;;;;;6101060;23;19909;-81
2024/03/27 07:16:49;;;;;;;5.82;2.30;;;;;;;;;;6078044;23;20007;-81
2024/03/27 07:19:15;;;;;;;8.00;2.33;;;;;;;;;;6102840;23;20061;-82
2024/03/27 07:21:43;;;;;;;6.55;2.10;;;;;;;;;;6100923;23;20011;-80
2024/03/27 07:24:09;;;;;;;5.07;2.22;;;;;;;;;;6076466;23;20006;-81
2024/03/27 07:26:38;;;;;;;12.57;2.63;;;;;;;;;;6077362;23;20021;-82
2024/03/27 07:29:04;;;;;;;6.65;2.60;;;;;;;;;;6080056;23;20046;-81
2024/03/27 07:31:32;;;;;;;7.35;2.47;;;;;;;;;;6083081;23;20018;-82
2024/03/27 07:33:57;;;;;;;8.48;2.58;;;;;;;;;;6083247;23;20030;-81
2024/03/27 07:36:23;;;;;;;6.80;2.03;;;;;;;;;;6084346;23;20034;-82
2024/03/27 07:38:50;;;;;;;6.72;2.25;;;;;;;;;;6091075;23;20013;-83
2024/03/27 07:41:15;;;;;;;8.73;2.42;;;;;;;;;;6096724;23;20018;-82
2024/03/27 07:43:43;;;;;;;7.82;2.38;;;;;;;;;;6094616;23;20010;-81
2024/03/27 07:46:11;;;;;;;9.95;3.60;;;;;;;;;;6095695;23;20013;-84
2024/03/27 07:48:37;;;;;;;6.70;2.30;;;;;;;;;;6095727;23;19998;-83
2024/03/27 07:51:03;;;;;;;19.13;6.30;;;;;;;;;;6098027;23;20109;-82
2024/03/27 07:53:29;;;;;;;5.63;2.55;;;;;;;;;;6095810;23;20033;-82
2024/03/27 07:55:56;;;;;;;5.32;2.28;;;;;;;;;;6090331;23;20006;-82
2024/03/27 07:58:23;;;;;;;8.38;2.05;;;;;;;;;;6089690;23;20074;-81
2024/03/27 08:00:49;;;;;;;8.02;2.22;;;;;;;;;;6091628;23;20026;-81
2024/03/27 08:03:15;;;;;;;4.80;2.00;;;;;;;;;;6090762;23;20014;-83
2024/03/27 08:05:45;;;;;;;6.70;3.15;;;;;;;;;;6118231;23;20010;-81
2024/03/27 08:08:12;;;;;;;10.77;1.90;;;;;;;;;;6096740;23;19991;-82
2024/03/27 08:10:38;;;;;;;7.55;2.30;;;;;;;;;;6072491;23;20508;-83
2024/03/27 08:13:04;;;;;;;8.27;2.30;;;;;;;;;;6093499;23;20019;-81
2024/03/27 08:15:39;;;;;;;4.45;2.17;;;;;;;;;;6090671;23;20082;-82
2024/03/27 08:18:06;;;;;;;10.02;2.03;;;;;;;;;;6092512;23;20007;-82
2024/03/27 08:20:32;;;;;;;7.18;1.88;;;;;;;;;;6096669;23;20012;-81
2024/03/27 08:22:58;;;;;;;3.67;1.70;;;;;;;;;;6096645;23;20033;-82
2024/03/27 08:25:24;;;;;;;4.88;1.95;;;;;;;;;;6095316;23;20361;-82
2024/03/27 08:27:52;;;;;;;;;;;;;;;;;;6093350;23;20037;-82
2024/03/27 08:30:45;;;;;;;9.10;2.33;;;;;;;;;;6088932;23;19909;-82
2024/03/27 08:33:13;;;;;;;4.70;2.00;;;;;;;;;;6092628;23;20060;-82
2024/03/27 08:35:40;;;;;;;7.72;2.20;;;;;;;;;;6095260;23;20007;-83
2024/03/27 08:38:08;;;;;;;5.55;1.88;;;;;;;;;;6093860;23;20355;-82
2024/03/27 08:40:35;;;;;;;5.88;2.00;;;;;;;;;;6090613;23;20006;-82
2024/03/27 08:43:11;;;;;;;4.80;1.67;;;;;;;;;;6093315;23;20093;-83
2024/03/27 08:45:38;;;;;;;5.68;2.00;;;;;;;;;;6115320;23;20021;-81
2024/03/27 08:48:04;;;;;;;4.80;1.65;;;;;;;;;;6048345;23;20019;-82
2024/03/27 08:50:31;;;;;;;5.53;1.75;;;;;;;;;;6095056;23;20014;-81
2024/03/27 08:52:57;;;;;;;5.85;1.58;;;;;;;;;;6070338;23;20066;-83
2024/03/27 08:55:27;;;;;;;5.20;1.70;;;;;;;;;;6098382;23;20006;-81
2024/03/27 08:57:53;;;;;;;7.93;2.28;;;;;;;;;;6099115;23;20034;-82
2024/03/27 09:00:24;;;;;;;5.05;2.00;;;;;;;;;;6099871;23;20007;-81
2024/03/27 09:02:50;;;;;;;4.90;1.70;;;;;;;;;;6097397;23;20021;-82
2024/03/27 09:05:18;;;;;;;3.95;1.52;;;;;;;;;;6118044;23;20034;-83
2024/03/27 09:07:46;;;;;;;6.28;1.52;;;;;;;;;;6093335;23;19998;-81
2024/03/27 09:10:11;;;;;;;5.10;1.75;;;;;;;;;;6094598;23;20345;-82
2024/03/27 09:12:37;;;;;;;4.22;1.52;;;;;;;;;;6084133;23;20018;-82
2024/03/27 09:15:03;;;;;;;4.82;1.85;;;;;;;;;;6079805;23;20030;-82
2024/03/27 09:17:31;;;;;;;4.28;1.50;;;;;;;;;;6112545;23;20009;-82
2024/03/27 09:19:58;;;;;;;8.80;3.00;;;;;;;;;;6098383;23;20013;-82
2024/03/27 09:22:24;;;;;;;7.40;2.40;;;;;;;;;;6097726;23;20042;-82
2024/03/27 09:24:54;;;;;;;6.63;2.40;;;;;;;;;;6097196;23;20019;-82
2024/03/27 09:27:20;;;;;;;5.22;2.28;;;;;;;;;;6073365;23;20019;-82
2024/03/27 09:29:51;;;;;;;7.20;3.08;;;;;;;;;;6092989;23;20057;-82
2024/03/27 09:32:17;;;;;;;13.32;3.13;;;;;;;;;;6039312;23;20026;-81
2024/03/27 09:34:43;;;;;;;5.85;2.20;;;;;;;;;;6108140;23;20401;-83
2024/03/27 09:37:09;;;;;;;6.03;2.08;;;;;;;;;;6085337;23;20006;-81
2024/03/27 09:39:35;;;;;;;4.88;1.90;;;;;;;;;;6061044;23;20067;-82
2024/03/27 09:42:02;;;;;;;5.05;2.10;;;;;;;;;;6091180;23;20029;-82
2024/03/27 09:44:29;;;;;;;6.95;1.80;;;;;;;;;;6046934;23;20088;-82
2024/03/27 09:46:59;;;;;;;6.28;2.05;;;;;;;;;;6097855;23;20010;-82
2024/03/27 09:49:26;;;;;;;9.07;1.90;;;;;;;;;;6097548;23;20018;-82
2024/03/27 09:52:01;;;;;;;5.07;1.92;;;;;;;;;;6096788;23;20033;-82
2024/03/27 09:54:28;;;;;;;6.65;1.83;;;;;;;;;;6097267;23;20017;-81
2024/03/27 09:56:58;;;;;;;9.40;2.20;;;;;;;;;;6098540;23;20007;-83
2024/03/27 09:59:26;;;;;;;4.07;1.70;;;;;;;;;;6051265;23;20457;-82
2024/03/27 10:02:04;;;;;;;3.65;1.50;;;;;;;;;;6098994;23;20037;-83
2024/03/27 10:04:31;;;;;;;4.55;1.90;;;;;;;;;;6075781;23;20011;-81
2024/03/27 10:06:58;;;;;;;5.20;1.98;;;;;;;;;;6097022;23;20033;-82
2024/03/27 10:09:28;;;;;;;3.53;1.90;;;;;;;;;;6095186;23;20070;-83
2024/03/27 10:11:58;;;;;;;4.50;1.50;;;;;;;;;;6095264;23;19990;-82
2024/03/27 10:14:29;;;;;;;4.70;1.95;;;;;;;;;;6096954;23;20069;-83
2024/03/27 10:17:04;;;;;;;9.82;2.30;;;;;;;;;;6097774;23;20006;-84
2024/03/27 10:19:32;;;;;;;3.85;1.88;;;;;;;;;;6099663;23;20011;-81
2024/03/27 10:21:59;;;;;;;6.63;2.45;;;;;;;;;;6098744;23;20002;-82
2024/03/27 10:24:27;;;;;;;4.93;1.85;;;;;;;;;;6100350;23;20002;-83
2024/03/27 10:26:53;;;;;;;6.70;1.98;;;;;;;;;;6099174;23;20447;-83
2024/03/27 10:29:19;;;;;;;3.55;1.65;;;;;;;;;;6075594;23;20014;-82
2024/03/27 10:31:45;;;;;;;3.90;1.60;;;;;;;;;;6099911;23;20026;-81
2024/03/27 10:34:11;;;;;;;4.85;1.50;;;;;;;;;;6075878;23;19995;-81
2024/03/27 10:36:40;;;;;;;4.90;2.28;;;;;;;;;;6099126;23;20058;-83
2024/03/27 10:39:13;;;;;;;4.55;1.40;;;;;;;;;;6097671;23;19998;-83
2024/03/27 10:41:40;;;;;;;5.78;1.50;;;;;;;;;;6097033;23;20070;-82
2024/03/27 10:44:08;;;;;;;3.95;1.83;;;;;;;;;;6097072;23;20010;-81
2024/03/27 10:46:35;;;;;;;4.53;1.77;;;;;;;;;;6098427;23;20550;-83
2024/03/27 10:49:01;;;;;;;5.30;1.83;;;;;;;;;;6099013;23;19999;-83
2024/03/27 10:51:27;;;;;;;4.97;2.40;;;;;;;;;;6051139;23;20022;-84
2024/03/27 10:53:53;;;;;;;4.65;2.28;;;;;;;;;;6099446;23;20018;-84
2024/03/27 10:56:20;;;;;;;6.72;2.15;;;;;;;;;;6123747;23;20062;-84
2024/03/27 10:58:47;;;;;;;6.90;2.05;;;;;;;;;;6122781;23;20017;-84
2024/03/27 11:01:14;;;;;;;8.20;1.90;;;;;;;;;;6099449;23;20002;-85
2024/03/27 11:03:43;;;;;;;5.55;2.35;;;;;;;;;;6119343;23;20006;-85
2024/03/27 11:06:13;;;;;;;5.97;1.80;;;;;;;;;;6094204;23;20466;-84
2024/03/27 11:08:39;;;;;;;4.72;2.08;;;;;;;;;;6050782;23;20011;-84
2024/03/27 11:11:09;;;;;;;4.22;1.73;;;;;;;;;;6094775;23;20010;-85
2024/03/27 11:13:35;;;;;;;11.68;2.55;;;;;;;;;;6097837;23;20033;-85
2024/03/27 11:16:01;;;;;;;6.32;1.67;;;;;;;;;;6122018;23;19997;-85
2024/03/27 11:18:32;;;;;;;7.47;2.33;;;;;;;;;;6088517;23;20018;-85
2024/03/27 11:20:58;;;;;;;7.43;2.30;;;;;;;;;;6082779;23;20016;-85
2024/03/27 11:23:28;;;;;;;5.15;2.15;;;;;;;;;;6081655;23;20008;-85
2024/03/27 11:25:55;;;;;;;3.58;1.70;;;;;;;;;;6083118;23;20006;-84
2024/03/27 11:28:22;;;;;;;14.82;5.38;;;;;;;;;;6057333;23;20049;-85
2024/03/27 11:30:48;;;;;;;8.57;2.78;;;;;;;;;;6084607;23;20010;-85
2024/03/27 11:33:14;;;;;;;7.75;2.10;;;;;;;;;;6111991;23;20006;-85
2024/03/27 11:35:40;;;;;;;6.32;1.90;;;;;;;;;;6086678;23;20429;-85
2024/03/27 11:38:08;;;;;;;7.43;2.40;;;;;;;;;;6081700;23;20002;-85
2024/03/27 11:40:34;;;;;;;7.55;2.38;;;;;;;;;;6082431;23;20006;-84
2024/03/27 11:43:04;;;;;;;8.55;2.05;;;;;;;;;;6080166;23;20039;-84
2024/03/27 11:45:31;;;;;;;5.15;1.80;;;;;;;;;;6081500;23;20009;-85
2024/03/27 11:47:58;;;;;;;8.48;2.17;;;;;;;;;;6054710;23;20357;-84
2024/03/27 11:50:24;;;;;;;8.18;2.80;;;;;;;;;;6033263;23;20524;-85
2024/03/27 11:52:54;;;;;;;10.55;4.90;;;;;;;;;;6105245;23;20006;-84
2024/03/27 11:55:19;;;;;;;11.18;5.13;;;;;;;;;;6084062;23;20022;-83
2024/03/27 11:57:46;;;;;;;9.40;3.45;;;;;;;;;;6088034;23;20006;-84
2024/03/27 12:00:12;;;;;;;5.80;2.40;;;;;;;;;;6084785;23;20010;-84
2024/03/27 12:02:39;;;;;;;7.00;1.70;;;;;;;;;;6089222;23;20045;-83
2024/03/27 12:05:07;;;;;;;5.95;2.13;;;;;;;;;;6092997;23;20075;-83
2024/03/27 12:07:34;;;;;;;6.95;2.83;;;;;;;;;;6115128;23;20014;-83
2024/03/27 12:10:04;;;;;;;5.90;2.63;;;;;;;;;;6091688;23;20074;-84
2024/03/27 12:12:31;;;;;;;8.23;2.40;;;;;;;;;;6069711;23;20118;-83
2024/03/27 12:14:57;;;;;;;4.57;1.77;;;;;;;;;;6042543;23;20352;-84
2024/03/27 12:17:35;;;;;;;10.63;2.40;;;;;;;;;;6090438;23;20022;-83
2024/03/27 12:20:03;;;;;;;2.95;1.40;;;;;;;;;;6088771;23;20009;-82
2024/03/27 12:22:29;;;;;;;;;;;;;;;;;;6092125;23;19994;-83
2024/03/27 12:24:55;;;;;;;3.13;1.40;;;;;;;;;;6093456;23;19917;-85
2024/03/27 12:27:22;;;;;;;10.45;2.17;;;;;;;;;;6094603;23;20010;-84
2024/03/27 12:29:51;;;;;;;4.80;1.80;;;;;;;;;;6098230;23;20018;-84
2024/03/27 12:32:21;;;;;;;5.35;2.30;;;;;;;;;;6074557;23;20149;-83
2024/03/27 12:34:47;;;;;;;5.47;1.85;;;;;;;;;;6108167;23;20010;-84
2024/03/27 12:37:14;;;;;;;6.07;1.70;;;;;;;;;;6083292;23;20065;-84
2024/03/27 12:39:41;;;;;;;5.40;2.50;;;;;;;;;;6086910;23;20017;-85
2024/03/27 12:42:06;;;;;;;3.97;1.67;;;;;;;;;;6089232;23;20030;-85
2024/03/27 12:44:32;;;;;;;3.10;1.60;;;;;;;;;;6057958;23;20006;-83
2024/03/27 12:46:58;;;;;;;4.53;2.05;;;;;;;;;;6082818;23;20013;-84
2024/03/27 12:49:23;;;;;;;5.70;2.50;;;;;;;;;;6086042;23;20073;-84
2024/03/27 12:51:49;;;;;;;4.43;2.17;;;;;;;;;;6084018;23;20014;-84
2024/03/27 12:54:15;;;;;;;5.70;2.15;;;;;;;;;;6085533;23;20003;-84
2024/03/27 12:56:41;;;;;;;7.40;2.28;;;;;;;;;;6085465;23;20007;-83
2024/03/27 12:59:07;;;;;;;5.60;2.08;;;;;;;;;;6082254;23;20116;-83
2024/03/27 13:01:33;;;;;;;4.82;2.28;;;;;;;;;;6079416;23;20007;-84
2024/03/27 13:03:59;;;;;;;7.30;2.28;;;;;;;;;;6082016;23;20042;-84
2024/03/27 13:06:25;;;;;;;6.10;1.95;;;;;;;;;;6104794;23;20010;-83
2024/03/27 13:08:54;;;;;;;5.45;1.60;;;;;;;;;;6057082;23;20089;-85
2024/03/27 13:11:20;;;;;;;;;;;;;;;;;;6082048;23;20066;-84
2024/03/27 13:13:46;;;;;;;5.15;1.80;;;;;;;;;;6080212;23;20225;-83
2024/03/27 13:16:12;;;;;;;7.57;2.30;;;;;;;;;;6080355;23;20026;-84
2024/03/27 13:18:38;;;;;;;8.88;2.78;;;;;;;;;;6104454;23;20002;-84
2024/03/27 13:21:06;;;;;;;7.68;1.92;;;;;;;;;;6081087;23;20089;-84
2024/03/27 13:23:33;;;;;;;8.73;2.35;;;;;;;;;;6106521;23;20349;-85
2024/03/27 13:25:59;;;;;;;8.48;2.08;;;;;;;;;;6080215;23;20022;-84
2024/03/27 13:28:24;;;;;;;7.68;2.10;;;;;;;;;;6057739;23;20018;-84
2024/03/27 13:30:51;;;;;;;8.23;2.78;;;;;;;;;;6079531;23;20015;-84
2024/03/27 13:33:17;;;;;;;6.88;2.35;;;;;;;;;;6081080;23;20037;-84
2024/03/27 13:35:43;;;;;;;9.75;2.38;;;;;;;;;;6082310;23;20011;-83
2024/03/27 13:38:09;;;;;;;10.27;2.00;;;;;;;;;;6082811;23;20086;-83
2024/03/27 13:40:34;;;;;;;6.07;2.13;;;;;;;;;;6084245;23;20033;-84
2024/03/27 13:43:00;;;;;;;7.68;2.95;;;;;;;;;;6090753;23;20007;-83
2024/03/27 13:45:26;;;;;;;7.72;2.28;;;;;;;;;;6066646;23;20011;-84
2024/03/27 13:47:54;;;;;;;;;;;;;;;;;;6088212;23;20014;-84
2024/03/27 13:50:23;;;;;;;5.78;2.15;;;;;;;;;;6059433;23;19940;-84
2024/03/27 13:52:49;;;;;;;5.38;2.20;;;;;;;;;;6083298;23;20013;-84
2024/03/27 13:55:15;;;;;;;6.18;2.20;;;;;;;;;;6058760;23;20009;-84
2024/03/27 13:57:42;;;;;;;7.05;2.10;;;;;;;;;;6107183;23;20002;-84
2024/03/27 14:00:08;;;;;;;6.38;1.95;;;;;;;;;;6079690;23;20014;-84
2024/03/27 14:02:34;;;;;;;6.97;2.08;;;;;;;;;;6081356;23;20109;-83
2024/03/27 14:05:00;;;;;;;5.78;1.98;;;;;;;;;;6106257;23;20010;-84
2024/03/27 14:07:25;;;;;;;4.63;2.17;;;;;;;;;;6082060;23;20448;-84
2024/03/27 14:09:51;;;;;;;5.78;2.08;;;;;;;;;;6082410;23;20010;-85
2024/03/27 14:12:17;;;;;;;8.32;2.20;;;;;;;;;;6082856;23;20113;-85
2024/03/27 14:14:42;;;;;;;7.75;2.20;;;;;;;;;;6083756;23;20003;-84
2024/03/27 14:17:08;;;;;;;5.72;2.47;;;;;;;;;;6057662;23;20037;-84
2024/03/27 14:19:34;;;;;;;4.88;2.08;;;;;;;;;;6106733;23;20400;-84
2024/03/27 14:22:00;;;;;;;5.63;2.13;;;;;;;;;;6081797;23;20038;-84
2024/03/27 14:24:26;;;;;;;5.32;2.25;;;;;;;;;;6059706;23;20033;-85
2024/03/27 14:26:54;;;;;;;5.93;2.20;;;;;;;;;;6085733;23;20014;-84
2024/03/27 14:29:20;;;;;;;12.18;2.70;;;;;;;;;;6095277;23;19998;-84
2024/03/27 14:31:46;;;;;;;8.50;2.80;;;;;;;;;;6095586;23;20424;-84
2024/03/27 14:34:11;;;;;;;7.15;2.60;;;;;;;;;;6071752;23;20051;-84
2024/03/27 14:36:37;;;;;;;6.80;2.53;;;;;;;;;;6120211;23;20003;-83
2024/03/27 14:39:03;;;;;;;5.57;2.58;;;;;;;;;;6116588;23;20007;-83